createdAt,value
2022-08-22T00:00:42.812Z,100317.09
2022-08-22T00:02:48.332Z,100316.13
2022-08-22T00:03:15.976Z,100318.69
2022-08-22T00:03:42.018Z,100322.03
2022-08-22T00:06:39.287Z,100328.63
2022-08-22T00:09:33.572Z,100322.88
2022-08-22T00:12:27.372Z,100322.03
2022-08-22T00:15:43.511Z,100321.22
2022-08-22T00:18:32.771Z,100326.81
2022-08-22T00:21:24.601Z,100313.44
2022-08-22T00:24:21.519Z,100323.72
2022-08-22T00:27:14.307Z,100320.03
2022-08-22T00:30:08.362Z,100319.41
2022-08-22T00:33:01.322Z,100326.19
2022-08-22T00:35:52.040Z,100324.53
2022-08-22T00:38:44.602Z,100330.28
2022-08-22T00:41:46.758Z,100323.91
2022-08-22T00:45:10.939Z,100324.34
2022-08-22T00:48:14.632Z,100327.00
2022-08-22T00:51:33.685Z,100330.31
2022-08-22T00:54:30.952Z,100329.06
2022-08-22T00:57:33.402Z,100334.00
2022-08-22T01:00:24.307Z,100336.50
2022-08-22T01:03:47.773Z,100337.72
2022-08-22T01:06:45.212Z,100339.94
2022-08-22T01:09:43.273Z,100336.47
2022-08-22T01:12:43.652Z,100331.56
2022-08-22T01:15:34.895Z,100334.25
2022-08-22T01:18:33.218Z,100334.00
2022-08-22T01:21:53.996Z,100342.25
2022-08-22T01:25:22.575Z,100336.88
2022-08-22T01:28:47.108Z,100337.72
2022-08-22T01:32:09.528Z,100342.25
2022-08-22T01:35:27.804Z,100341.00
2022-08-22T01:38:27.675Z,100339.16
2022-08-22T01:41:29.838Z,100347.56
2022-08-22T01:44:32.544Z,100341.41
2022-08-22T01:47:24.293Z,100342.63
2022-08-22T01:50:18.762Z,100342.03
2022-08-22T01:53:12.595Z,100345.75
2022-08-22T01:56:08.588Z,100343.50
2022-08-22T01:59:01.722Z,100348.63
2022-08-22T02:01:58.195Z,100344.28
2022-08-22T02:04:52.669Z,100344.72
2022-08-22T02:07:49.314Z,100344.72
2022-08-22T02:11:03.820Z,100336.88
2022-08-22T02:13:56.616Z,100336.88
2022-08-22T02:16:46.820Z,100345.13
2022-08-22T02:19:41.324Z,100348.00
2022-08-22T02:22:44.682Z,100346.34
2022-08-22T02:25:37.000Z,100349.03
2022-08-22T02:28:34.449Z,100355.81
2022-08-22T02:31:27.398Z,100355.81
2022-08-22T02:34:24.857Z,100354.56
2022-08-22T02:37:17.629Z,100359.91
2022-08-22T02:40:12.110Z,100359.50
2022-08-22T02:43:05.168Z,100363.00
2022-08-22T02:45:57.814Z,100359.91
2022-08-22T02:48:52.198Z,100359.09
2022-08-22T02:51:50.474Z,100359.91
2022-08-22T02:54:47.349Z,100354.56
2022-08-22T02:57:40.282Z,100355.78
2022-08-22T03:00:33.314Z,100356.63
2022-08-22T03:03:26.575Z,100358.28
2022-08-22T03:06:38.829Z,100352.50
2022-08-22T03:09:32.440Z,100356.22
2022-08-22T03:12:26.441Z,100352.13
2022-08-22T03:15:20.503Z,100351.09
2022-08-22T03:18:20.325Z,100356.44
2022-08-22T03:21:19.233Z,100354.19
2022-08-22T03:24:14.084Z,100345.94
2022-08-22T03:27:05.980Z,100347.59
2022-08-22T03:29:58.289Z,100356.22
2022-08-22T03:32:54.507Z,100349.63
2022-08-22T03:35:56.714Z,100338.09
2022-08-22T03:38:53.977Z,100345.50
2022-08-22T03:41:55.172Z,100341.78
2022-08-22T03:45:20.398Z,100350.44
2022-08-22T03:48:59.129Z,100341.97
2022-08-22T03:52:00.171Z,100342.00
2022-08-22T03:55:14.223Z,100346.72
2022-08-22T03:58:32.951Z,100343.66
2022-08-22T04:01:34.811Z,100343.03
2022-08-22T04:04:44.061Z,100346.75
2022-08-22T04:08:05.240Z,100347.19
2022-08-22T04:11:21.373Z,100344.47
2022-08-22T04:14:41.330Z,100340.75
2022-08-22T04:17:40.958Z,100345.09
2022-08-22T04:20:50.839Z,100343.88
2022-08-22T04:24:09.659Z,100346.16
2022-08-22T04:27:02.535Z,100355.00
2022-08-22T04:29:54.677Z,100355.00
2022-08-22T04:32:46.646Z,100363.25
2022-08-22T04:35:38.851Z,100359.91
2022-08-22T04:38:30.533Z,100352.94
2022-08-22T04:41:24.415Z,100363.84
2022-08-22T04:44:17.553Z,100362.81
2022-08-22T04:47:10.188Z,100364.47
2022-08-22T04:50:04.398Z,100360.75
2022-08-22T04:53:07.009Z,100353.97
2022-08-22T04:56:07.240Z,100364.06
2022-08-22T04:58:59.233Z,100367.31
2022-08-22T05:01:55.329Z,100363.66
2022-08-22T05:04:46.981Z,100365.28
2022-08-22T05:07:41.659Z,100367.31
2022-08-22T05:10:35.608Z,100374.44
2022-08-22T05:13:29.068Z,100377.97
2022-08-22T05:16:20.504Z,100377.06
2022-08-22T05:19:16.794Z,100377.53
2022-08-22T05:22:06.319Z,100383.34
2022-08-22T05:24:57.476Z,100390.97
2022-08-22T05:27:48.423Z,100387.91
2022-08-22T05:30:37.253Z,100384.81
2022-08-22T05:33:28.058Z,100385.66
2022-08-22T05:36:22.232Z,100387.50
2022-08-22T05:39:13.375Z,100394.72
2022-08-22T05:42:03.733Z,100396.97
2022-08-22T05:44:52.399Z,100401.09
2022-08-22T05:47:44.570Z,100396.56
2022-08-22T05:50:37.903Z,100396.38
2022-08-22T05:53:39.615Z,100404.38
2022-08-22T05:56:34.734Z,100407.06
2022-08-22T05:59:25.754Z,100405.44
2022-08-22T06:02:18.811Z,100410.16
2022-08-22T06:05:11.858Z,100416.13
2022-08-22T06:08:04.841Z,100408.72
2022-08-22T06:10:56.582Z,100413.03
2022-08-22T06:13:48.757Z,100401.91
2022-08-22T06:16:47.663Z,100407.25
2022-08-22T06:19:38.819Z,100407.25
2022-08-22T06:22:29.157Z,100403.53
2022-08-22T06:25:20.529Z,100418.56
2022-08-22T06:28:13.499Z,100417.34
2022-08-22T06:31:03.500Z,100415.06
2022-08-22T06:33:57.985Z,100415.06
2022-08-22T06:36:49.567Z,100424.13
2022-08-22T06:39:40.223Z,100409.72
2022-08-22T06:42:31.076Z,100409.72
2022-08-22T06:45:23.607Z,100423.72
2022-08-22T06:48:17.661Z,100420.84
2022-08-22T06:51:09.301Z,100423.28
2022-08-22T06:54:01.324Z,100420.63
2022-08-22T06:56:50.865Z,100414.22
2022-08-22T06:59:40.327Z,100420.41
2022-08-22T07:02:36.691Z,100424.94
2022-08-22T07:05:28.771Z,100430.28
2022-08-22T07:08:21.243Z,100426.19
2022-08-22T07:11:13.026Z,100424.13
2022-08-22T07:14:05.190Z,100427.41
2022-08-22T07:16:57.702Z,100427.41
2022-08-22T07:19:50.276Z,100424.13
2022-08-22T07:22:39.279Z,100418.34
2022-08-22T07:25:28.379Z,100427.41
2022-08-22T07:28:36.487Z,100423.69
2022-08-22T07:31:37.163Z,100428.63
2022-08-22T07:34:37.593Z,100423.25
2022-08-22T07:37:33.337Z,100427.38
2022-08-22T07:40:27.325Z,100421.22
2022-08-22T07:43:23.592Z,100422.66
2022-08-22T07:46:23.097Z,100429.91
2022-08-22T07:49:16.629Z,100425.16
2022-08-22T07:52:08.079Z,100422.47
2022-08-22T07:55:05.655Z,100423.69
2022-08-22T07:57:57.022Z,100430.69
2022-08-22T08:00:47.424Z,100419.16
2022-08-22T08:03:36.176Z,100425.31
2022-08-22T08:06:25.581Z,100421.22
2022-08-22T08:09:15.574Z,100416.66
2022-08-22T08:12:06.831Z,100418.31
2022-08-22T08:14:56.699Z,100424.06
2022-08-22T08:17:46.256Z,100422.00
2022-08-22T08:20:36.347Z,100422.59
2022-08-22T08:23:26.609Z,100416.25
2022-08-22T08:26:18.269Z,100409.00
2022-08-22T08:29:07.495Z,100419.09
2022-08-22T08:31:56.659Z,100424.88
2022-08-22T08:34:45.979Z,100416.59
2022-08-22T08:37:42.137Z,100419.91
2022-08-22T08:40:48.528Z,100415.16
2022-08-22T08:43:42.414Z,100413.28
2022-08-22T08:47:01.671Z,100416.56
2022-08-22T08:50:01.371Z,100405.03
2022-08-22T08:53:11.967Z,100412.66
2022-08-22T08:56:06.073Z,100412.03
2022-08-22T08:59:00.310Z,100412.03
2022-08-22T09:02:13.787Z,100413.47
2022-08-22T09:05:35.909Z,100407.88
2022-08-22T09:08:47.689Z,100411.84
2022-08-22T09:12:06.726Z,100410.41
2022-08-22T09:15:18.232Z,100410.41
2022-08-22T09:18:34.585Z,100407.13
2022-08-22T09:21:53.854Z,100414.91
2022-08-22T09:25:06.053Z,100415.16
2022-08-22T09:28:02.500Z,100412.47
2022-08-22T09:31:17.023Z,100404.22
2022-08-22T09:34:28.117Z,100416.59
2022-08-22T09:37:21.147Z,100418.88
2022-08-22T09:40:17.911Z,100420.31
2022-08-22T09:43:10.881Z,100416.59
2022-08-22T09:46:09.225Z,100414.94
2022-08-22T09:49:06.678Z,100428.94
2022-08-22T09:52:05.412Z,100419.28
2022-08-22T09:55:07.953Z,100416.19
2022-08-22T09:58:01.530Z,100413.50
2022-08-22T10:00:55.372Z,100417.84
2022-08-22T10:04:19.506Z,100418.63
2022-08-22T10:07:25.091Z,100416.38
2022-08-22T10:10:26.199Z,100419.66
2022-08-22T10:13:23.758Z,100413.47
2022-08-22T10:16:21.982Z,100416.97
2022-08-22T10:19:18.551Z,100422.69
2022-08-22T10:22:29.883Z,100413.63
2022-08-22T10:25:28.518Z,100415.69
2022-08-22T10:28:21.983Z,100414.66
2022-08-22T10:31:22.361Z,100420.47
2022-08-22T10:34:13.539Z,100425.22
2022-08-22T10:37:10.246Z,100425.22
2022-08-22T10:40:05.716Z,100430.78
2022-08-22T10:42:59.565Z,100424.78
2022-08-22T10:45:49.645Z,100430.13
2022-08-22T10:48:46.883Z,100422.69
2022-08-22T10:51:44.633Z,100410.34
2022-08-22T10:54:43.883Z,100408.25
2022-08-22T10:57:53.008Z,100411.94
2022-08-22T11:00:49.771Z,100417.75
2022-08-22T11:03:42.429Z,100423.50
2022-08-22T11:06:34.707Z,100415.22
2022-08-22T11:09:28.109Z,100415.47
2022-08-22T11:12:23.460Z,100418.53
2022-08-22T11:15:26.242Z,100420.41
2022-08-22T11:18:34.646Z,100426.78
2022-08-22T11:21:29.124Z,100428.47
2022-08-22T11:25:00.228Z,100432.59
2022-08-22T11:28:04.779Z,100428.47
2022-08-22T11:31:07.210Z,100425.16
2022-08-22T11:34:01.174Z,100425.59
2022-08-22T11:36:54.456Z,100430.50
2022-08-22T11:39:47.302Z,100428.22
2022-08-22T11:42:47.771Z,100425.16
2022-08-22T11:45:40.828Z,100427.63
2022-08-22T11:48:39.949Z,100423.09
2022-08-22T11:51:43.992Z,100428.47
2022-08-22T11:54:42.121Z,100428.88
2022-08-22T11:57:34.611Z,100430.09
2022-08-22T12:00:36.321Z,100428.03
2022-08-22T12:03:39.172Z,100420.59
2022-08-22T12:06:40.643Z,100422.47
2022-08-22T12:09:42.883Z,100418.94
2022-08-22T12:12:42.150Z,100422.66
2022-08-22T12:15:36.822Z,100424.50
2022-08-22T12:18:41.832Z,100422.47
2022-08-22T12:21:55.757Z,100416.69
2022-08-22T12:24:54.081Z,100408.81
2022-08-22T12:27:55.295Z,100413.59
2022-08-22T12:30:53.569Z,100409.25
2022-08-22T12:34:13.910Z,100408.66
2022-08-22T12:37:11.956Z,100399.16
2022-08-22T12:40:26.450Z,100401.63
2022-08-22T12:43:44.958Z,100398.72
2022-08-22T12:46:46.750Z,100388.06
2022-08-22T12:49:52.295Z,100394.63
2022-08-22T12:53:00.553Z,100390.50
2022-08-22T12:56:04.929Z,100397.94
2022-08-22T12:59:17.798Z,100391.34
2022-08-22T13:02:15.480Z,100380.19
2022-08-22T13:05:19.928Z,100381.41
2022-08-22T13:08:11.317Z,100384.69
2022-08-22T13:11:02.552Z,100386.56
2022-08-22T13:13:56.821Z,100387.63
2022-08-22T13:16:48.977Z,100378.13
2022-08-22T13:19:51.393Z,100376.50
2022-08-22T13:22:45.306Z,100379.78
2022-08-22T13:25:57.072Z,100385.97
2022-08-22T13:28:47.784Z,100385.56
2022-08-22T13:31:37.764Z,100390.94
2022-08-22T13:34:39.700Z,100395.06
2022-08-22T13:37:32.195Z,100387.81
2022-08-22T13:40:26.915Z,100391.75
2022-08-22T13:43:22.845Z,100394.63
2022-08-22T13:46:11.586Z,100399.97
2022-08-22T13:49:02.959Z,100387.22
2022-08-22T13:51:53.940Z,100391.75
2022-08-22T13:54:52.854Z,100387.63
2022-08-22T13:57:45.458Z,100380.63
2022-08-22T14:01:16.451Z,100385.97
2022-08-22T14:04:28.329Z,100388.00
2022-08-22T14:07:25.951Z,100385.94
2022-08-22T14:10:21.818Z,100382.22
2022-08-22T14:13:39.801Z,100369.66
2022-08-22T14:16:31.038Z,100372.34
2022-08-22T14:19:27.129Z,100371.94
2022-08-22T14:22:18.187Z,100373.63
2022-08-22T14:25:13.204Z,100372.38
2022-08-22T14:28:06.536Z,100373.41
2022-08-22T14:31:01.278Z,100368.66
2022-08-22T14:33:54.795Z,100364.13
2022-08-22T14:36:47.641Z,100369.84
2022-08-22T14:39:42.910Z,100368.25
2022-08-22T14:42:44.372Z,100356.25
2022-08-22T14:45:36.852Z,100363.28
2022-08-22T14:48:32.591Z,100358.38
2022-08-22T14:51:25.091Z,100365.38
2022-08-22T14:54:21.230Z,100366.22
2022-08-22T14:57:19.905Z,100364.56
2022-08-22T15:00:12.311Z,100366.63
2022-08-22T15:03:18.019Z,100372.81
2022-08-22T15:06:11.580Z,100365.81
2022-08-22T15:09:01.072Z,100362.94
2022-08-22T15:11:56.729Z,100364.16
2022-08-22T15:14:52.162Z,100365.81
2022-08-22T15:17:44.758Z,100374.91
2022-08-22T15:20:36.565Z,100367.06
2022-08-22T15:23:45.075Z,100367.91
2022-08-22T15:26:37.987Z,100370.06
2022-08-22T15:29:29.292Z,100366.19
2022-08-22T15:32:22.920Z,100368.50
2022-08-22T15:35:17.754Z,100372.81
2022-08-22T15:38:09.156Z,100372.66
2022-08-22T15:41:31.280Z,100380.25
2022-08-22T15:44:32.918Z,100369.97
2022-08-22T15:47:32.822Z,100376.75
2022-08-22T15:50:32.715Z,100375.34
2022-08-22T15:53:24.008Z,100374.69
2022-08-22T15:56:25.005Z,100367.69
2022-08-22T15:59:23.697Z,100365.00
2022-08-22T16:02:29.949Z,100370.38
2022-08-22T16:05:26.198Z,100358.84
2022-08-22T16:08:16.594Z,100365.25
2022-08-22T16:11:32.789Z,100363.81
2022-08-22T16:14:26.298Z,100356.38
2022-08-22T16:17:46.319Z,100365.66
2022-08-22T16:20:55.058Z,100358.88
2022-08-22T16:24:21.605Z,100361.56
2022-08-22T16:27:20.097Z,100362.38
2022-08-22T16:30:16.366Z,100364.25
2022-08-22T16:33:07.054Z,100361.75
2022-08-22T16:36:41.499Z,100366.31
2022-08-22T16:39:39.103Z,100373.31
2022-08-22T16:42:36.937Z,100376.59
2022-08-22T16:45:35.873Z,100380.09
2022-08-22T16:48:34.623Z,100381.97
2022-08-22T16:51:23.221Z,100381.53
2022-08-22T16:54:14.115Z,100388.34
2022-08-22T16:57:09.809Z,100388.97
2022-08-22T17:00:09.605Z,100393.13
2022-08-22T17:03:09.029Z,100395.97
2022-08-22T17:06:06.173Z,100388.34
2022-08-22T17:09:01.930Z,100400.09
2022-08-22T17:11:55.131Z,100392.63
2022-08-22T17:14:52.656Z,100394.72
2022-08-22T17:17:53.792Z,100405.03
2022-08-22T17:20:47.835Z,100399.22
2022-08-22T17:23:42.915Z,100400.88
2022-08-22T17:26:42.211Z,100403.13
2022-08-22T17:29:40.163Z,100412.44
2022-08-22T17:32:35.837Z,100415.53
2022-08-22T17:35:36.096Z,100407.69
2022-08-22T17:38:36.455Z,100418.59
2022-08-22T17:41:31.204Z,100411.59
2022-08-22T17:44:25.592Z,100408.72
2022-08-22T17:47:16.952Z,100419.00
2022-08-22T17:50:10.763Z,100408.28
2022-08-22T17:53:02.651Z,100403.78
2022-08-22T17:56:00.307Z,100422.66
2022-08-22T17:58:59.916Z,100418.09
2022-08-22T18:01:52.576Z,100421.03
2022-08-22T18:04:47.355Z,100430.53
2022-08-22T18:07:53.946Z,100430.72
2022-08-22T18:10:47.193Z,100426.00
2022-08-22T18:13:41.555Z,100424.31
2022-08-22T18:16:33.317Z,100428.03
2022-08-22T18:19:38.403Z,100425.16
2022-08-22T18:22:31.604Z,100434.03
2022-08-22T18:25:36.168Z,100433.19
2022-08-22T18:28:28.733Z,100441.03
2022-08-22T18:31:29.452Z,100439.22
2022-08-22T18:34:24.945Z,100440.03
2022-08-22T18:37:18.651Z,100444.56
2022-08-22T18:40:13.466Z,100450.38
2022-08-22T18:43:12.909Z,100438.81
2022-08-22T18:46:04.378Z,100441.69
2022-08-22T18:49:14.633Z,100436.34
2022-08-22T18:52:17.483Z,100437.59
2022-08-22T18:55:24.451Z,100434.53
2022-08-22T18:58:27.648Z,100429.16
2022-08-22T19:01:44.224Z,100433.47
2022-08-22T19:05:04.324Z,100436.00
2022-08-22T19:08:03.795Z,100431.88
2022-08-22T19:10:57.366Z,100440.09
2022-08-22T19:14:01.446Z,100440.53
2022-08-22T19:17:16.198Z,100442.38
2022-08-22T19:20:28.139Z,100440.97
2022-08-22T19:23:46.286Z,100444.69
2022-08-22T19:26:40.745Z,100437.69
2022-08-22T19:29:55.808Z,100438.47
2022-08-22T19:33:03.104Z,100437.03
2022-08-22T19:36:14.325Z,100436.44
2022-08-22T19:39:08.865Z,100433.16
2022-08-22T19:41:58.505Z,100436.88
2022-08-22T19:44:48.780Z,100438.94
2022-08-22T19:47:39.280Z,100438.50
2022-08-22T19:50:34.743Z,100443.84
2022-08-22T19:53:36.326Z,100447.16
2022-08-22T19:56:39.018Z,100448.78
2022-08-22T19:59:44.417Z,100450.06
2022-08-22T20:02:52.592Z,100450.84
2022-08-22T20:05:56.953Z,100451.69
2022-08-22T20:08:58.605Z,100457.41
2022-08-22T20:11:53.889Z,100454.09
2022-08-22T20:14:48.186Z,100454.50
2022-08-22T20:17:43.741Z,100453.63
2022-08-22T20:20:38.064Z,100452.38
2022-08-22T20:23:29.127Z,100444.31
2022-08-22T20:26:19.182Z,100446.59
2022-08-22T20:29:08.355Z,100446.59
2022-08-22T20:31:58.982Z,100437.13
2022-08-22T20:34:48.355Z,100435.41
2022-08-22T20:38:05.175Z,100428.47
2022-08-22T20:40:54.746Z,100426.59
2022-08-22T20:43:52.398Z,100427.00
2022-08-22T20:46:57.571Z,100430.44
2022-08-22T20:49:48.386Z,100432.84
2022-08-22T20:52:38.335Z,100424.03
2022-08-22T20:55:31.495Z,100427.69
2022-08-22T20:58:24.340Z,100421.44
2022-08-22T21:01:15.750Z,100421.78
2022-08-22T21:04:05.600Z,100426.88
2022-08-22T21:07:00.827Z,100417.34
2022-08-22T21:10:15.897Z,100421.56
2022-08-22T21:13:10.481Z,100422.28
2022-08-22T21:16:02.480Z,100413.84
2022-08-22T21:18:54.023Z,100415.63
2022-08-22T21:21:42.552Z,100422.59
2022-08-22T21:24:31.782Z,100423.81
2022-08-22T21:27:24.267Z,100425.66
2022-08-22T21:30:13.690Z,100428.28
2022-08-22T21:33:02.186Z,100423.03
2022-08-22T21:35:57.907Z,100430.16
2022-08-22T21:38:54.883Z,100422.81
2022-08-22T21:41:45.512Z,100428.63
2022-08-22T21:44:38.466Z,100423.66
2022-08-22T21:47:31.580Z,100431.53
2022-08-22T21:50:38.319Z,100427.38
2022-08-22T21:53:29.607Z,100431.91
2022-08-22T21:56:29.548Z,100428.25
2022-08-22T21:59:25.010Z,100422.34
2022-08-22T22:02:36.904Z,100431.88
2022-08-22T22:05:25.898Z,100423.59
2022-08-22T22:08:14.644Z,100411.56
2022-08-22T22:11:08.700Z,100422.44
2022-08-22T22:13:57.281Z,100424.16
2022-08-22T22:16:48.439Z,100422.16
2022-08-22T22:19:37.398Z,100418.03
2022-08-22T22:22:25.996Z,100427.03
2022-08-22T22:25:41.225Z,100424.16
2022-08-22T22:28:27.753Z,100431.31
2022-08-22T22:31:18.273Z,100432.59
2022-08-22T22:34:06.820Z,100418.75
2022-08-22T22:36:55.713Z,100422.09
2022-08-22T22:39:44.301Z,100422.97
2022-08-22T22:42:33.045Z,100419.91
2022-08-22T22:45:22.893Z,100423.59
2022-08-22T22:48:11.503Z,100423.59
2022-08-22T22:51:09.578Z,100422.16
2022-08-22T22:53:58.546Z,100421.56
2022-08-22T22:56:47.998Z,100418.47
2022-08-22T22:59:36.749Z,100413.72
2022-08-22T23:02:28.379Z,100414.56
2022-08-22T23:05:16.985Z,100410.63
2022-08-22T23:08:05.882Z,100414.53
2022-08-22T23:10:54.410Z,100415.84
2022-08-22T23:13:45.429Z,100414.63
2022-08-22T23:16:37.276Z,100418.31
2022-08-22T23:22:03.027Z,100404.31
2022-08-22T23:24:51.955Z,100410.28
2022-08-22T23:27:40.512Z,100407.00
2022-08-22T23:30:28.996Z,100406.38
2022-08-22T23:33:17.513Z,100400.59
2022-08-22T23:36:11.892Z,100395.06
2022-08-22T23:39:01.906Z,100405.38
2022-08-22T23:41:50.936Z,100404.53
2022-08-22T23:44:41.675Z,100402.25
2022-08-22T23:47:30.297Z,100403.13
2022-08-22T23:50:18.873Z,100413.81
2022-08-22T23:53:07.386Z,100403.94
2022-08-22T23:55:57.491Z,100405.56
2022-08-22T23:58:46.244Z,100407.22
